sensor_id;sensor_type;location;lat;lon;timestamp;P1;durP1;ratioP1;P2;durP2;ratioP2
60078;SDS011;45951;45.824;8.824;2023-09-18T00:00:20;8.48;;;5.40;;
60078;SDS011;45951;45.824;8.824;2023-09-18T00:02:01;9.35;;;5.53;;
60078;SDS011;45951;45.824;8.824;2023-09-18T00:03:41;6.10;;;5.32;;
60078;SDS011;45951;45.824;8.824;2023-09-18T00:05:22;7.95;;;5.60;;
60078;SDS011;45951;45.824;8.824;2023-09-18T00:07:03;7.68;;;5.30;;
60078;SDS011;45951;45.824;8.824;2023-09-18T00:08:43;7.07;;;5.28;;
60078;SDS011;45951;45.824;8.824;2023-09-18T00:10:25;7.13;;;5.18;;
60078;SDS011;45951;45.824;8.824;2023-09-18T00:12:06;8.32;;;5.18;;
60078;SDS011;45951;45.824;8.824;2023-09-18T00:13:46;7.60;;;5.10;;
60078;SDS011;45951;45.824;8.824;2023-09-18T00:15:27;6.85;;;5.18;;
60078;SDS011;45951;45.824;8.824;2023-09-18T00:17:07;10.27;;;5.35;;
60078;SDS011;45951;45.824;8.824;2023-09-18T00:18:48;6.72;;;5.22;;
60078;SDS011;45951;45.824;8.824;2023-09-18T00:20:28;7.53;;;5.22;;
60078;SDS011;45951;45.824;8.824;2023-09-18T00:22:08;9.68;;;5.22;;
60078;SDS011;45951;45.824;8.824;2023-09-18T00:23:49;8.77;;;5.53;;
60078;SDS011;45951;45.824;8.824;2023-09-18T00:25:29;7.15;;;5.47;;
60078;SDS011;45951;45.824;8.824;2023-09-18T00:27:10;9.75;;;6.05;;
60078;SDS011;45951;45.824;8.824;2023-09-18T00:28:54;7.68;;;6.22;;
60078;SDS011;45951;45.824;8.824;2023-09-18T00:30:34;7.57;;;6.20;;
60078;SDS011;45951;45.824;8.824;2023-09-18T00:32:14;8.07;;;5.97;;
60078;SDS011;45951;45.824;8.824;2023-09-18T00:33:55;9.35;;;6.53;;
60078;SDS011;45951;45.824;8.824;2023-09-18T00:35:35;11.02;;;5.63;;
60078;SDS011;45951;45.824;8.824;2023-09-18T00:37:15;7.72;;;5.97;;
60078;SDS011;45951;45.824;8.824;2023-09-18T00:38:56;7.43;;;5.90;;
60078;SDS011;45951;45.824;8.824;2023-09-18T00:40:36;7.43;;;5.57;;
60078;SDS011;45951;45.824;8.824;2023-09-18T00:42:17;8.57;;;5.60;;
60078;SDS011;45951;45.824;8.824;2023-09-18T00:43:58;7.50;;;5.10;;
60078;SDS011;45951;45.824;8.824;2023-09-18T00:45:39;6.47;;;5.10;;
60078;SDS011;45951;45.824;8.824;2023-09-18T00:47:22;7.38;;;4.65;;
60078;SDS011;45951;45.824;8.824;2023-09-18T00:49:02;6.95;;;4.63;;
60078;SDS011;45951;45.824;8.824;2023-09-18T00:50:45;8.02;;;5.40;;
60078;SDS011;45951;45.824;8.824;2023-09-18T00:52:26;10.65;;;5.18;;
60078;SDS011;45951;45.824;8.824;2023-09-18T00:54:07;6.72;;;4.78;;
60078;SDS011;45951;45.824;8.824;2023-09-18T00:55:49;6.25;;;4.50;;
60078;SDS011;45951;45.824;8.824;2023-09-18T00:57:30;6.35;;;4.57;;
60078;SDS011;45951;45.824;8.824;2023-09-18T00:59:11;7.07;;;4.63;;
60078;SDS011;45951;45.824;8.824;2023-09-18T01:00:51;7.65;;;5.00;;
60078;SDS011;45951;45.824;8.824;2023-09-18T01:02:32;6.40;;;4.97;;
60078;SDS011;45951;45.824;8.824;2023-09-18T01:04:12;8.05;;;4.90;;
60078;SDS011;45951;45.824;8.824;2023-09-18T01:05:53;7.05;;;4.63;;
60078;SDS011;45951;45.824;8.824;2023-09-18T01:07:34;6.78;;;4.75;;
60078;SDS011;45951;45.824;8.824;2023-09-18T01:09:16;8.23;;;5.15;;
60078;SDS011;45951;45.824;8.824;2023-09-18T01:16:53;5.95;;;4.53;;
60078;SDS011;45951;45.824;8.824;2023-09-18T01:18:36;7.80;;;5.10;;
60078;SDS011;45951;45.824;8.824;2023-09-18T01:20:17;7.70;;;4.13;;
60078;SDS011;45951;45.824;8.824;2023-09-18T01:21:57;8.15;;;4.53;;
60078;SDS011;45951;45.824;8.824;2023-09-18T01:23:37;7.13;;;4.85;;
60078;SDS011;45951;45.824;8.824;2023-09-18T01:25:18;7.45;;;4.75;;
60078;SDS011;45951;45.824;8.824;2023-09-18T01:26:58;7.47;;;4.18;;
60078;SDS011;45951;45.824;8.824;2023-09-18T01:28:38;7.88;;;4.85;;
60078;SDS011;45951;45.824;8.824;2023-09-18T01:30:19;7.55;;;4.65;;
60078;SDS011;45951;45.824;8.824;2023-09-18T01:31:59;6.68;;;4.63;;
60078;SDS011;45951;45.824;8.824;2023-09-18T01:33:39;7.65;;;5.15;;
60078;SDS011;45951;45.824;8.824;2023-09-18T01:35:20;8.45;;;4.80;;
60078;SDS011;45951;45.824;8.824;2023-09-18T01:37:00;7.43;;;4.70;;
60078;SDS011;45951;45.824;8.824;2023-09-18T01:38:41;7.45;;;4.93;;
60078;SDS011;45951;45.824;8.824;2023-09-18T01:40:21;7.20;;;4.90;;
60078;SDS011;45951;45.824;8.824;2023-09-18T01:42:03;10.20;;;5.35;;
60078;SDS011;45951;45.824;8.824;2023-09-18T01:43:45;9.75;;;5.13;;
60078;SDS011;45951;45.824;8.824;2023-09-18T01:45:26;7.25;;;5.10;;
60078;SDS011;45951;45.824;8.824;2023-09-18T01:47:07;6.40;;;4.78;;
60078;SDS011;45951;45.824;8.824;2023-09-18T01:48:48;7.70;;;5.53;;
60078;SDS011;45951;45.824;8.824;2023-09-18T01:50:29;8.90;;;5.15;;
60078;SDS011;45951;45.824;8.824;2023-09-18T01:52:09;11.23;;;5.40;;
60078;SDS011;45951;45.824;8.824;2023-09-18T01:53:50;8.10;;;5.07;;
60078;SDS011;45951;45.824;8.824;2023-09-18T01:55:31;8.27;;;5.22;;
60078;SDS011;45951;45.824;8.824;2023-09-18T01:57:12;6.95;;;5.22;;
60078;SDS011;45951;45.824;8.824;2023-09-18T01:58:52;6.70;;;4.85;;
60078;SDS011;45951;45.824;8.824;2023-09-18T02:00:33;8.30;;;5.18;;
60078;SDS011;45951;45.824;8.824;2023-09-18T02:02:13;8.38;;;5.20;;
60078;SDS011;45951;45.824;8.824;2023-09-18T02:03:54;8.75;;;5.53;;
60078;SDS011;45951;45.824;8.824;2023-09-18T02:05:34;7.60;;;4.93;;
60078;SDS011;45951;45.824;8.824;2023-09-18T02:07:16;8.10;;;5.57;;
60078;SDS011;45951;45.824;8.824;2023-09-18T02:08:56;6.82;;;5.25;;
60078;SDS011;45951;45.824;8.824;2023-09-18T02:10:37;8.35;;;5.30;;
60078;SDS011;45951;45.824;8.824;2023-09-18T02:12:17;8.18;;;5.55;;
60078;SDS011;45951;45.824;8.824;2023-09-18T02:13:58;7.45;;;5.03;;
60078;SDS011;45951;45.824;8.824;2023-09-18T02:15:39;8.77;;;5.90;;
60078;SDS011;45951;45.824;8.824;2023-09-18T02:17:19;9.10;;;5.15;;
60078;SDS011;45951;45.824;8.824;2023-09-18T02:19:00;7.90;;;5.80;;
60078;SDS011;45951;45.824;8.824;2023-09-18T02:20:40;7.85;;;5.85;;
60078;SDS011;45951;45.824;8.824;2023-09-18T02:22:21;6.93;;;4.90;;
60078;SDS011;45951;45.824;8.824;2023-09-18T02:24:01;7.05;;;5.15;;
60078;SDS011;45951;45.824;8.824;2023-09-18T02:25:42;8.02;;;5.32;;
60078;SDS011;45951;45.824;8.824;2023-09-18T02:27:22;8.07;;;5.70;;
60078;SDS011;45951;45.824;8.824;2023-09-18T02:29:06;8.50;;;5.40;;
60078;SDS011;45951;45.824;8.824;2023-09-18T02:30:49;8.55;;;5.75;;
60078;SDS011;45951;45.824;8.824;2023-09-18T02:32:29;7.30;;;5.15;;
60078;SDS011;45951;45.824;8.824;2023-09-18T02:34:10;8.65;;;5.75;;
60078;SDS011;45951;45.824;8.824;2023-09-18T02:35:50;8.38;;;5.07;;
60078;SDS011;45951;45.824;8.824;2023-09-18T02:37:30;8.25;;;5.20;;
60078;SDS011;45951;45.824;8.824;2023-09-18T02:39:11;8.30;;;5.25;;
60078;SDS011;45951;45.824;8.824;2023-09-18T02:40:51;7.15;;;5.10;;
60078;SDS011;45951;45.824;8.824;2023-09-18T02:42:33;8.40;;;5.82;;
60078;SDS011;45951;45.824;8.824;2023-09-18T02:44:13;8.23;;;5.65;;
60078;SDS011;45951;45.824;8.824;2023-09-18T02:45:53;6.80;;;5.57;;
60078;SDS011;45951;45.824;8.824;2023-09-18T02:47:34;8.35;;;5.55;;
60078;SDS011;45951;45.824;8.824;2023-09-18T02:49:14;7.53;;;5.45;;
60078;SDS011;45951;45.824;8.824;2023-09-18T02:50:54;8.15;;;5.85;;
60078;SDS011;45951;45.824;8.824;2023-09-18T02:52:35;6.97;;;5.65;;
60078;SDS011;45951;45.824;8.824;2023-09-18T02:54:15;9.57;;;5.32;;
60078;SDS011;45951;45.824;8.824;2023-09-18T02:55:59;8.63;;;5.68;;
60078;SDS011;45951;45.824;8.824;2023-09-18T02:57:39;9.13;;;5.53;;
60078;SDS011;45951;45.824;8.824;2023-09-18T02:59:20;7.38;;;5.50;;
60078;SDS011;45951;45.824;8.824;2023-09-18T03:01:00;7.63;;;5.22;;
60078;SDS011;45951;45.824;8.824;2023-09-18T03:02:43;8.18;;;5.00;;
60078;SDS011;45951;45.824;8.824;2023-09-18T03:04:23;9.40;;;5.00;;
60078;SDS011;45951;45.824;8.824;2023-09-18T03:06:04;8.85;;;4.32;;
60078;SDS011;45951;45.824;8.824;2023-09-18T03:07:44;7.22;;;4.93;;
60078;SDS011;45951;45.824;8.824;2023-09-18T03:09:25;6.82;;;4.65;;
60078;SDS011;45951;45.824;8.824;2023-09-18T03:11:11;7.25;;;4.30;;
60078;SDS011;45951;45.824;8.824;2023-09-18T03:12:52;9.88;;;4.70;;
60078;SDS011;45951;45.824;8.824;2023-09-18T03:14:33;6.72;;;4.35;;
60078;SDS011;45951;45.824;8.824;2023-09-18T03:16:14;9.15;;;5.35;;
60078;SDS011;45951;45.824;8.824;2023-09-18T03:17:54;7.95;;;4.57;;
60078;SDS011;45951;45.824;8.824;2023-09-18T03:19:35;7.55;;;4.72;;
60078;SDS011;45951;45.824;8.824;2023-09-18T03:21:15;7.80;;;4.45;;
60078;SDS011;45951;45.824;8.824;2023-09-18T03:22:57;6.10;;;4.15;;
60078;SDS011;45951;45.824;8.824;2023-09-18T03:24:38;7.57;;;4.82;;
60078;SDS011;45951;45.824;8.824;2023-09-18T03:26:18;7.97;;;4.00;;
60078;SDS011;45951;45.824;8.824;2023-09-18T03:27:58;8.20;;;4.60;;
60078;SDS011;45951;45.824;8.824;2023-09-18T03:29:39;8.63;;;4.57;;
60078;SDS011;45951;45.824;8.824;2023-09-18T03:31:19;8.13;;;4.90;;
60078;SDS011;45951;45.824;8.824;2023-09-18T03:32:59;8.75;;;5.18;;
60078;SDS011;45951;45.824;8.824;2023-09-18T03:34:40;7.35;;;4.50;;
60078;SDS011;45951;45.824;8.824;2023-09-18T03:36:21;7.85;;;4.53;;
60078;SDS011;45951;45.824;8.824;2023-09-18T03:38:03;6.25;;;4.53;;
60078;SDS011;45951;45.824;8.824;2023-09-18T03:39:43;10.30;;;5.05;;
60078;SDS011;45951;45.824;8.824;2023-09-18T03:41:24;8.05;;;4.45;;
60078;SDS011;45951;45.824;8.824;2023-09-18T03:43:04;8.05;;;4.90;;
60078;SDS011;45951;45.824;8.824;2023-09-18T03:44:44;7.95;;;5.03;;
60078;SDS011;45951;45.824;8.824;2023-09-18T03:46:25;11.05;;;6.10;;
60078;SDS011;45951;45.824;8.824;2023-09-18T03:48:05;11.35;;;5.50;;
60078;SDS011;45951;45.824;8.824;2023-09-18T03:49:45;12.98;;;5.75;;
60078;SDS011;45951;45.824;8.824;2023-09-18T03:51:26;11.52;;;6.15;;
60078;SDS011;45951;45.824;8.824;2023-09-18T03:53:06;12.48;;;5.47;;
60078;SDS011;45951;45.824;8.824;2023-09-18T03:54:47;9.65;;;5.10;;
60078;SDS011;45951;45.824;8.824;2023-09-18T03:56:27;12.15;;;5.22;;
60078;SDS011;45951;45.824;8.824;2023-09-18T03:58:07;12.88;;;5.47;;
60078;SDS011;45951;45.824;8.824;2023-09-18T03:59:47;9.20;;;6.38;;
60078;SDS011;45951;45.824;8.824;2023-09-18T04:01:28;9.90;;;6.10;;
60078;SDS011;45951;45.824;8.824;2023-09-18T04:03:08;9.35;;;5.78;;
60078;SDS011;45951;45.824;8.824;2023-09-18T04:04:49;8.15;;;5.47;;
60078;SDS011;45951;45.824;8.824;2023-09-18T04:06:36;10.95;;;6.68;;
60078;SDS011;45951;45.824;8.824;2023-09-18T04:08:17;10.13;;;5.55;;
60078;SDS011;45951;45.824;8.824;2023-09-18T04:09:58;9.45;;;6.60;;
60078;SDS011;45951;45.824;8.824;2023-09-18T04:11:38;9.20;;;6.10;;
60078;SDS011;45951;45.824;8.824;2023-09-18T04:13:18;11.05;;;5.55;;
60078;SDS011;45951;45.824;8.824;2023-09-18T04:14:59;8.10;;;5.18;;
60078;SDS011;45951;45.824;8.824;2023-09-18T04:16:39;9.80;;;6.00;;
60078;SDS011;45951;45.824;8.824;2023-09-18T04:18:22;10.70;;;6.10;;
60078;SDS011;45951;45.824;8.824;2023-09-18T04:20:02;7.53;;;5.95;;
60078;SDS011;45951;45.824;8.824;2023-09-18T04:21:44;9.93;;;6.05;;
60078;SDS011;45951;45.824;8.824;2023-09-18T04:23:25;7.45;;;5.43;;
60078;SDS011;45951;45.824;8.824;2023-09-18T04:25:07;10.40;;;5.53;;
60078;SDS011;45951;45.824;8.824;2023-09-18T04:26:47;9.70;;;5.63;;
60078;SDS011;45951;45.824;8.824;2023-09-18T04:28:30;8.15;;;5.53;;
60078;SDS011;45951;45.824;8.824;2023-09-18T04:30:11;9.00;;;5.88;;
60078;SDS011;45951;45.824;8.824;2023-09-18T04:31:51;11.18;;;6.38;;
60078;SDS011;45951;45.824;8.824;2023-09-18T04:33:33;8.65;;;6.45;;
60078;SDS011;45951;45.824;8.824;2023-09-18T04:35:14;11.18;;;6.43;;
60078;SDS011;45951;45.824;8.824;2023-09-18T04:36:54;10.00;;;5.38;;
60078;SDS011;45951;45.824;8.824;2023-09-18T04:38:34;8.77;;;6.05;;
60078;SDS011;45951;45.824;8.824;2023-09-18T04:40:15;11.57;;;6.20;;
60078;SDS011;45951;45.824;8.824;2023-09-18T04:41:55;10.20;;;6.15;;
60078;SDS011;45951;45.824;8.824;2023-09-18T04:43:35;10.48;;;5.90;;
60078;SDS011;45951;45.824;8.824;2023-09-18T04:45:15;9.82;;;5.97;;
60078;SDS011;45951;45.824;8.824;2023-09-18T04:46:56;10.07;;;6.03;;
60078;SDS011;45951;45.824;8.824;2023-09-18T04:48:37;8.98;;;5.70;;
60078;SDS011;45951;45.824;8.824;2023-09-18T04:50:18;11.65;;;5.80;;
60078;SDS011;45951;45.824;8.824;2023-09-18T04:51:58;10.45;;;6.07;;
60078;SDS011;45951;45.824;8.824;2023-09-18T04:53:38;8.43;;;5.47;;
60078;SDS011;45951;45.824;8.824;2023-09-18T04:55:19;8.40;;;5.28;;
60078;SDS011;45951;45.824;8.824;2023-09-18T04:56:59;9.82;;;5.50;;
60078;SDS011;45951;45.824;8.824;2023-09-18T04:58:39;8.90;;;5.60;;
60078;SDS011;45951;45.824;8.824;2023-09-18T05:00:20;8.05;;;5.97;;
60078;SDS011;45951;45.824;8.824;2023-09-18T05:02:03;9.60;;;5.53;;
60078;SDS011;45951;45.824;8.824;2023-09-18T05:03:44;8.30;;;5.68;;
60078;SDS011;45951;45.824;8.824;2023-09-18T05:05:24;11.77;;;5.82;;
60078;SDS011;45951;45.824;8.824;2023-09-18T05:07:05;8.68;;;6.18;;
60078;SDS011;45951;45.824;8.824;2023-09-18T05:08:45;8.23;;;5.40;;
60078;SDS011;45951;45.824;8.824;2023-09-18T05:10:25;9.43;;;6.72;;
60078;SDS011;45951;45.824;8.824;2023-09-18T05:12:06;9.70;;;6.30;;
60078;SDS011;45951;45.824;8.824;2023-09-18T05:13:48;8.40;;;5.75;;
60078;SDS011;45951;45.824;8.824;2023-09-18T05:15:29;8.57;;;5.80;;
60078;SDS011;45951;45.824;8.824;2023-09-18T05:17:10;7.95;;;6.00;;
60078;SDS011;45951;45.824;8.824;2023-09-18T05:18:53;8.10;;;5.97;;
60078;SDS011;45951;45.824;8.824;2023-09-18T05:20:34;8.90;;;5.65;;
60078;SDS011;45951;45.824;8.824;2023-09-18T05:22:14;8.02;;;5.70;;
60078;SDS011;45951;45.824;8.824;2023-09-18T05:23:55;10.10;;;6.57;;
60078;SDS011;45951;45.824;8.824;2023-09-18T05:25:35;9.40;;;5.88;;
60078;SDS011;45951;45.824;8.824;2023-09-18T05:27:18;9.02;;;6.00;;
60078;SDS011;45951;45.824;8.824;2023-09-18T05:28:58;12.40;;;6.38;;
60078;SDS011;45951;45.824;8.824;2023-09-18T05:30:38;12.45;;;6.57;;
60078;SDS011;45951;45.824;8.824;2023-09-18T05:32:19;9.95;;;7.00;;
60078;SDS011;45951;45.824;8.824;2023-09-18T05:33:59;11.23;;;6.80;;
60078;SDS011;45951;45.824;8.824;2023-09-18T05:35:40;9.75;;;7.05;;
60078;SDS011;45951;45.824;8.824;2023-09-18T05:37:22;12.35;;;8.88;;
60078;SDS011;45951;45.824;8.824;2023-09-18T05:39:02;10.25;;;6.90;;
60078;SDS011;45951;45.824;8.824;2023-09-18T05:40:43;9.20;;;6.60;;
60078;SDS011;45951;45.824;8.824;2023-09-18T05:42:24;11.70;;;6.88;;
60078;SDS011;45951;45.824;8.824;2023-09-18T05:44:05;8.73;;;6.93;;
60078;SDS011;45951;45.824;8.824;2023-09-18T05:45:47;12.48;;;8.05;;
60078;SDS011;45951;45.824;8.824;2023-09-18T05:47:32;10.80;;;7.32;;
60078;SDS011;45951;45.824;8.824;2023-09-18T05:49:13;11.05;;;7.80;;
60078;SDS011;45951;45.824;8.824;2023-09-18T05:50:53;10.63;;;7.68;;
60078;SDS011;45951;45.824;8.824;2023-09-18T05:52:34;11.32;;;7.75;;
60078;SDS011;45951;45.824;8.824;2023-09-18T05:54:14;11.10;;;8.07;;
60078;SDS011;45951;45.824;8.824;2023-09-18T05:55:55;10.48;;;7.35;;
60078;SDS011;45951;45.824;8.824;2023-09-18T05:57:37;25.05;;;22.77;;
60078;SDS011;45951;45.824;8.824;2023-09-18T05:59:17;19.10;;;16.88;;
60078;SDS011;45951;45.824;8.824;2023-09-18T06:00:59;13.00;;;8.70;;
60078;SDS011;45951;45.824;8.824;2023-09-18T06:02:40;13.40;;;8.90;;
60078;SDS011;45951;45.824;8.824;2023-09-18T06:04:20;12.70;;;8.43;;
60078;SDS011;45951;45.824;8.824;2023-09-18T06:06:02;11.75;;;8.10;;
60078;SDS011;45951;45.824;8.824;2023-09-18T06:07:42;12.35;;;9.02;;
60078;SDS011;45951;45.824;8.824;2023-09-18T06:09:24;12.93;;;9.23;;
60078;SDS011;45951;45.824;8.824;2023-09-18T06:11:04;19.20;;;9.80;;
60078;SDS011;45951;45.824;8.824;2023-09-18T06:12:45;13.25;;;9.65;;
60078;SDS011;45951;45.824;8.824;2023-09-18T06:14:25;14.98;;;9.90;;
60078;SDS011;45951;45.824;8.824;2023-09-18T06:16:06;15.05;;;11.20;;
60078;SDS011;45951;45.824;8.824;2023-09-18T06:17:48;17.58;;;11.18;;
60078;SDS011;45951;45.824;8.824;2023-09-18T06:19:28;16.77;;;10.85;;
60078;SDS011;45951;45.824;8.824;2023-09-18T06:21:08;16.75;;;11.27;;
60078;SDS011;45951;45.824;8.824;2023-09-18T06:22:48;15.85;;;11.20;;
60078;SDS011;45951;45.824;8.824;2023-09-18T06:24:29;13.82;;;11.20;;
60078;SDS011;45951;45.824;8.824;2023-09-18T06:26:09;17.63;;;10.85;;
60078;SDS011;45951;45.824;8.824;2023-09-18T06:27:50;16.00;;;11.48;;
60078;SDS011;45951;45.824;8.824;2023-09-18T06:29:33;17.23;;;12.48;;
60078;SDS011;45951;45.824;8.824;2023-09-18T06:31:14;17.90;;;12.32;;
60078;SDS011;45951;45.824;8.824;2023-09-18T06:32:54;21.40;;;15.27;;
60078;SDS011;45951;45.824;8.824;2023-09-18T06:34:34;19.45;;;13.60;;
60078;SDS011;45951;45.824;8.824;2023-09-18T06:36:15;19.17;;;14.13;;
60078;SDS011;45951;45.824;8.824;2023-09-18T06:37:55;23.58;;;14.05;;
60078;SDS011;45951;45.824;8.824;2023-09-18T06:39:38;21.33;;;13.32;;
60078;SDS011;45951;45.824;8.824;2023-09-18T06:41:18;19.50;;;14.57;;
60078;SDS011;45951;45.824;8.824;2023-09-18T06:42:59;21.13;;;14.82;;
60078;SDS011;45951;45.824;8.824;2023-09-18T06:44:42;24.02;;;15.93;;
60078;SDS011;45951;45.824;8.824;2023-09-18T06:46:23;22.05;;;15.95;;
60078;SDS011;45951;45.824;8.824;2023-09-18T06:48:04;19.95;;;14.73;;
60078;SDS011;45951;45.824;8.824;2023-09-18T06:49:44;24.40;;;15.88;;
60078;SDS011;45951;45.824;8.824;2023-09-18T06:51:24;22.40;;;16.17;;
60078;SDS011;45951;45.824;8.824;2023-09-18T06:53:05;28.88;;;18.77;;
60078;SDS011;45951;45.824;8.824;2023-09-18T06:56:35;27.65;;;18.20;;
60078;SDS011;45951;45.824;8.824;2023-09-18T06:58:16;29.33;;;20.05;;
60078;SDS011;45951;45.824;8.824;2023-09-18T06:59:56;30.13;;;20.02;;
60078;SDS011;45951;45.824;8.824;2023-09-18T07:01:36;29.42;;;20.17;;
60078;SDS011;45951;45.824;8.824;2023-09-18T07:03:17;32.15;;;21.38;;
60078;SDS011;45951;45.824;8.824;2023-09-18T07:04:57;30.48;;;21.58;;
60078;SDS011;45951;45.824;8.824;2023-09-18T07:06:38;31.42;;;22.00;;
60078;SDS011;45951;45.824;8.824;2023-09-18T07:08:18;33.25;;;23.67;;
60078;SDS011;45951;45.824;8.824;2023-09-18T07:10:03;31.13;;;21.42;;
60078;SDS011;45951;45.824;8.824;2023-09-18T07:11:43;31.95;;;21.77;;
60078;SDS011;45951;45.824;8.824;2023-09-18T07:13:24;41.78;;;25.00;;
60078;SDS011;45951;45.824;8.824;2023-09-18T07:15:04;34.42;;;23.58;;
60078;SDS011;45951;45.824;8.824;2023-09-18T07:16:46;32.55;;;23.27;;
60078;SDS011;45951;45.824;8.824;2023-09-18T07:18:26;35.03;;;23.98;;
60078;SDS011;45951;45.824;8.824;2023-09-18T07:20:07;31.58;;;22.98;;
60078;SDS011;45951;45.824;8.824;2023-09-18T07:21:57;32.85;;;23.45;;
60078;SDS011;45951;45.824;8.824;2023-09-18T07:23:39;34.58;;;23.15;;
60078;SDS011;45951;45.824;8.824;2023-09-18T07:25:22;34.72;;;24.33;;
60078;SDS011;45951;45.824;8.824;2023-09-18T07:27:02;32.60;;;23.02;;
60078;SDS011;45951;45.824;8.824;2023-09-18T07:28:43;35.22;;;23.40;;
60078;SDS011;45951;45.824;8.824;2023-09-18T07:30:24;37.53;;;25.50;;
60078;SDS011;45951;45.824;8.824;2023-09-18T07:32:07;36.60;;;25.08;;
60078;SDS011;45951;45.824;8.824;2023-09-18T07:33:47;37.35;;;26.33;;
60078;SDS011;45951;45.824;8.824;2023-09-18T07:35:28;39.67;;;26.67;;
60078;SDS011;45951;45.824;8.824;2023-09-18T07:37:09;36.85;;;26.42;;
60078;SDS011;45951;45.824;8.824;2023-09-18T07:38:49;43.63;;;27.30;;
60078;SDS011;45951;45.824;8.824;2023-09-18T07:40:29;44.97;;;29.42;;
60078;SDS011;45951;45.824;8.824;2023-09-18T07:42:10;40.95;;;28.80;;
60078;SDS011;45951;45.824;8.824;2023-09-18T07:43:50;40.33;;;28.90;;
60078;SDS011;45951;45.824;8.824;2023-09-18T07:45:31;40.83;;;27.25;;
60078;SDS011;45951;45.824;8.824;2023-09-18T07:47:11;42.15;;;29.23;;
60078;SDS011;45951;45.824;8.824;2023-09-18T07:48:51;44.38;;;29.05;;
60078;SDS011;45951;45.824;8.824;2023-09-18T07:50:32;49.75;;;31.83;;
60078;SDS011;45951;45.824;8.824;2023-09-18T07:52:13;44.55;;;29.58;;
60078;SDS011;45951;45.824;8.824;2023-09-18T07:53:53;42.42;;;29.02;;
60078;SDS011;45951;45.824;8.824;2023-09-18T07:55:33;47.80;;;30.83;;
60078;SDS011;45951;45.824;8.824;2023-09-18T07:57:15;46.47;;;30.33;;
60078;SDS011;45951;45.824;8.824;2023-09-18T07:58:55;40.22;;;26.95;;
60078;SDS011;45951;45.824;8.824;2023-09-18T08:00:36;42.15;;;27.85;;
60078;SDS011;45951;45.824;8.824;2023-09-18T08:02:16;37.20;;;25.52;;
60078;SDS011;45951;45.824;8.824;2023-09-18T08:03:57;34.95;;;25.05;;
60078;SDS011;45951;45.824;8.824;2023-09-18T08:05:39;38.13;;;25.58;;
60078;SDS011;45951;45.824;8.824;2023-09-18T08:07:20;37.00;;;25.08;;
60078;SDS011;45951;45.824;8.824;2023-09-18T08:09:00;44.40;;;28.75;;
60078;SDS011;45951;45.824;8.824;2023-09-18T08:10:41;47.33;;;30.83;;
60078;SDS011;45951;45.824;8.824;2023-09-18T08:12:21;45.83;;;29.48;;
60078;SDS011;45951;45.824;8.824;2023-09-18T08:14:02;44.95;;;30.35;;
60078;SDS011;45951;45.824;8.824;2023-09-18T08:15:43;46.28;;;30.30;;
60078;SDS011;45951;45.824;8.824;2023-09-18T08:17:23;47.50;;;32.45;;
60078;SDS011;45951;45.824;8.824;2023-09-18T08:19:04;47.92;;;32.38;;
60078;SDS011;45951;45.824;8.824;2023-09-18T08:20:44;51.78;;;31.67;;
60078;SDS011;45951;45.824;8.824;2023-09-18T08:22:25;48.60;;;32.17;;
60078;SDS011;45951;45.824;8.824;2023-09-18T08:24:05;50.78;;;33.80;;
60078;SDS011;45951;45.824;8.824;2023-09-18T08:25:45;53.05;;;33.55;;
60078;SDS011;45951;45.824;8.824;2023-09-18T08:27:27;53.83;;;34.97;;
60078;SDS011;45951;45.824;8.824;2023-09-18T08:29:09;50.78;;;34.75;;
60078;SDS011;45951;45.824;8.824;2023-09-18T08:30:49;53.00;;;35.15;;
60078;SDS011;45951;45.824;8.824;2023-09-18T08:32:29;52.40;;;34.05;;
60078;SDS011;45951;45.824;8.824;2023-09-18T08:34:10;46.67;;;32.47;;
60078;SDS011;45951;45.824;8.824;2023-09-18T08:35:50;53.40;;;34.83;;
60078;SDS011;45951;45.824;8.824;2023-09-18T08:37:31;49.20;;;33.83;;
60078;SDS011;45951;45.824;8.824;2023-09-18T08:39:11;53.60;;;33.85;;
60078;SDS011;45951;45.824;8.824;2023-09-18T08:40:53;49.13;;;33.42;;
60078;SDS011;45951;45.824;8.824;2023-09-18T08:42:34;49.00;;;33.17;;
60078;SDS011;45951;45.824;8.824;2023-09-18T08:44:16;46.03;;;32.55;;
60078;SDS011;45951;45.824;8.824;2023-09-18T08:45:57;47.78;;;31.77;;
60078;SDS011;45951;45.824;8.824;2023-09-18T08:47:41;49.50;;;31.98;;
60078;SDS011;45951;45.824;8.824;2023-09-18T08:49:24;46.40;;;31.23;;
60078;SDS011;45951;45.824;8.824;2023-09-18T08:51:05;47.90;;;32.25;;
60078;SDS011;45951;45.824;8.824;2023-09-18T08:52:47;47.42;;;33.15;;
60078;SDS011;45951;45.824;8.824;2023-09-18T08:54:27;50.22;;;33.65;;
60078;SDS011;45951;45.824;8.824;2023-09-18T08:56:09;49.10;;;34.35;;
60078;SDS011;45951;45.824;8.824;2023-09-18T08:57:50;49.17;;;33.47;;
60078;SDS011;45951;45.824;8.824;2023-09-18T08:59:33;52.20;;;35.13;;
60078;SDS011;45951;45.824;8.824;2023-09-18T09:01:15;52.53;;;34.70;;
60078;SDS011;45951;45.824;8.824;2023-09-18T09:02:55;51.65;;;33.85;;
60078;SDS011;45951;45.824;8.824;2023-09-18T09:04:36;49.05;;;32.38;;
60078;SDS011;45951;45.824;8.824;2023-09-18T09:06:16;52.88;;;33.90;;
60078;SDS011;45951;45.824;8.824;2023-09-18T09:07:57;50.50;;;33.60;;
60078;SDS011;45951;45.824;8.824;2023-09-18T09:09:37;45.70;;;32.55;;
60078;SDS011;45951;45.824;8.824;2023-09-18T09:11:18;46.80;;;32.35;;
60078;SDS011;45951;45.824;8.824;2023-09-18T09:13:00;44.53;;;30.50;;
60078;SDS011;45951;45.824;8.824;2023-09-18T09:14:41;44.22;;;30.67;;
60078;SDS011;45951;45.824;8.824;2023-09-18T09:16:45;44.55;;;30.98;;
60078;SDS011;45951;45.824;8.824;2023-09-18T09:18:29;38.65;;;29.27;;
60078;SDS011;45951;45.824;8.824;2023-09-18T09:20:12;44.97;;;31.73;;
60078;SDS011;45951;45.824;8.824;2023-09-18T09:21:53;44.33;;;31.02;;
60078;SDS011;45951;45.824;8.824;2023-09-18T09:23:47;41.03;;;29.23;;
60078;SDS011;45951;45.824;8.824;2023-09-18T09:25:29;40.97;;;29.20;;
60078;SDS011;45951;45.824;8.824;2023-09-18T09:27:14;40.63;;;29.70;;
60078;SDS011;45951;45.824;8.824;2023-09-18T09:28:54;42.13;;;29.77;;
60078;SDS011;45951;45.824;8.824;2023-09-18T09:30:35;42.67;;;30.65;;
60078;SDS011;45951;45.824;8.824;2023-09-18T09:32:16;38.85;;;27.98;;
60078;SDS011;45951;45.824;8.824;2023-09-18T09:33:57;40.00;;;28.63;;
60078;SDS011;45951;45.824;8.824;2023-09-18T09:35:40;42.45;;;29.77;;
60078;SDS011;45951;45.824;8.824;2023-09-18T09:37:21;36.75;;;29.25;;
60078;SDS011;45951;45.824;8.824;2023-09-18T09:39:10;40.03;;;28.25;;
60078;SDS011;45951;45.824;8.824;2023-09-18T09:40:51;37.53;;;27.92;;
60078;SDS011;45951;45.824;8.824;2023-09-18T09:42:31;38.03;;;28.13;;
60078;SDS011;45951;45.824;8.824;2023-09-18T09:44:19;39.40;;;28.58;;
60078;SDS011;45951;45.824;8.824;2023-09-18T09:46:01;37.92;;;27.63;;
60078;SDS011;45951;45.824;8.824;2023-09-18T09:47:42;43.85;;;30.02;;
60078;SDS011;45951;45.824;8.824;2023-09-18T09:49:23;38.08;;;29.65;;
60078;SDS011;45951;45.824;8.824;2023-09-18T09:51:07;36.85;;;28.50;;
60078;SDS011;45951;45.824;8.824;2023-09-18T09:52:49;38.60;;;29.02;;
60078;SDS011;45951;45.824;8.824;2023-09-18T09:54:33;40.30;;;29.95;;
60078;SDS011;45951;45.824;8.824;2023-09-18T09:56:16;37.35;;;28.58;;
60078;SDS011;45951;45.824;8.824;2023-09-18T09:58:02;38.55;;;29.20;;
60078;SDS011;45951;45.824;8.824;2023-09-18T09:59:43;39.75;;;30.17;;
60078;SDS011;45951;45.824;8.824;2023-09-18T10:01:24;37.08;;;29.30;;
60078;SDS011;45951;45.824;8.824;2023-09-18T10:03:07;39.10;;;29.15;;
60078;SDS011;45951;45.824;8.824;2023-09-18T10:04:49;37.05;;;28.88;;
60078;SDS011;45951;45.824;8.824;2023-09-18T10:06:30;37.90;;;28.75;;
60078;SDS011;45951;45.824;8.824;2023-09-18T10:08:23;42.13;;;28.83;;